Portada
METAR-TAF:

METAR-TAF

Aeropuertos :

Oelwein Municipal Airport

Oelwein, Iowa, Estados Unidos

latitud: 42-40-51N, longitud: 091-58-28W, altitud: 328 m

Observación

El informe se hizo hace 22 minutos, a las 07:55 UTC
Viento 4 kt del este-noreste
Temperatura 11°C
Humedad 71%
Presión 1026 hPa
Visibilidad: 16.1 km
Cielo despejado

METAR: KOLZ 310755Z AUTO 06004KT 10SM CLR 11/06 A3029 RMK A01

Hora: 03:17 (08:17 UTC)


TAF: falta

Observaciones y pronósticos meteorológicos de más de 4000 aeropuertos (mensajes METAR y TAF).

Los puntos amarillos y rojos representan las estaciones disponibles.

Ponga el ratón en el punto deseado para ver el nombre de la estación.

Haga clic para ver las observaciones y los pronósticos meteorológicos.

Para cambiar el mapa : haga clic en los botones verdes con una cruz de color negro para hacer un zoom, en el botón verde con un guión para alejar o en las flechas verdes para mapas adyacentes.


METAR-TAF: